createdAt,value
2024-01-27T00:00:48.701Z,86.94
2024-01-27T00:01:48.871Z,86.83
2024-01-27T00:02:49.161Z,86.52
2024-01-27T00:03:49.178Z,86.42
2024-01-27T00:04:49.427Z,86.63
2024-01-27T00:05:49.647Z,86.52
2024-01-27T00:06:49.853Z,86.42
2024-01-27T00:07:49.891Z,86.52
2024-01-27T00:08:50.125Z,85.91
2024-01-27T00:09:50.289Z,86.01
2024-01-27T00:10:50.498Z,86.11
2024-01-27T00:11:50.682Z,86.32
2024-01-27T00:12:50.870Z,86.21
2024-01-27T00:13:51.057Z,85.91
2024-01-27T00:14:51.271Z,85.70
2024-01-27T00:15:51.447Z,85.91
2024-01-27T00:16:51.647Z,86.32
2024-01-27T00:17:51.928Z,86.05
2024-01-27T00:18:52.183Z,86.05
2024-01-27T00:19:52.205Z,85.42
2024-01-27T00:20:52.435Z,85.49
2024-01-27T00:21:52.592Z,85.39
2024-01-27T00:22:52.796Z,85.28
2024-01-27T00:23:53.061Z,84.56
2024-01-27T00:24:53.114Z,84.87
2024-01-27T00:25:53.259Z,84.77
2024-01-27T00:26:53.632Z,84.36
2024-01-27T00:27:53.649Z,83.73
2024-01-27T00:28:53.805Z,83.73
2024-01-27T00:29:53.999Z,83.84
2024-01-27T00:30:54.269Z,83.94
2024-01-27T00:31:54.350Z,83.42
2024-01-27T00:32:55.552Z,83.42
2024-01-27T00:33:54.897Z,83.32
2024-01-27T00:34:54.987Z,83.63
2024-01-27T00:35:55.180Z,82.60
2024-01-27T00:36:55.320Z,83.11
2024-01-27T00:37:55.519Z,83.84
2024-01-27T00:38:55.722Z,83.53
2024-01-27T00:39:55.891Z,83.42
2024-01-27T00:40:56.078Z,83.73
2024-01-27T00:41:56.283Z,83.53
2024-01-27T00:42:56.488Z,83.22
2024-01-27T00:43:56.662Z,83.11
2024-01-27T00:44:56.903Z,83.11
2024-01-27T00:45:57.028Z,83.11
2024-01-27T00:46:57.206Z,82.90
2024-01-27T00:47:57.538Z,83.42
2024-01-27T00:48:57.650Z,83.11
2024-01-27T00:49:57.635Z,83.53
2024-01-27T00:50:57.839Z,83.63
2024-01-27T00:51:57.893Z,83.42
2024-01-27T00:52:59.514Z,83.63
2024-01-27T00:53:58.303Z,83.84
2024-01-27T00:54:58.401Z,83.73
2024-01-27T00:55:58.681Z,84.05
2024-01-27T00:56:58.777Z,83.56
2024-01-27T00:57:58.986Z,83.56
2024-01-27T00:58:59.168Z,83.77
2024-01-27T00:59:59.380Z,83.98
2024-01-27T01:00:59.658Z,83.77
2024-01-27T01:01:59.715Z,83.56
2024-01-27T01:02:59.965Z,84.08
2024-01-27T01:04:00.095Z,84.39
2024-01-27T01:05:00.185Z,84.39
2024-01-27T01:06:00.422Z,84.60
2024-01-27T01:07:00.526Z,85.02
2024-01-27T01:08:00.706Z,85.02
2024-01-27T01:09:00.934Z,85.32
2024-01-27T01:10:01.083Z,85.42
2024-01-27T01:11:01.275Z,85.63
2024-01-27T01:12:01.414Z,85.84
2024-01-27T01:13:01.615Z,85.78
2024-01-27T01:14:01.759Z,85.99
2024-01-27T01:15:02.022Z,86.19
2024-01-27T01:16:02.072Z,85.99
2024-01-27T01:17:02.284Z,86.09
2024-01-27T01:18:02.590Z,86.40
2024-01-27T01:19:02.755Z,86.71
2024-01-27T01:20:02.930Z,86.60
2024-01-27T01:21:03.062Z,86.60
2024-01-27T01:22:03.168Z,86.81
2024-01-27T01:23:03.367Z,86.81
2024-01-27T01:24:03.575Z,86.91
2024-01-27T01:25:03.764Z,87.02
2024-01-27T01:26:03.947Z,86.81
2024-01-27T01:27:04.505Z,86.81
2024-01-27T01:28:04.286Z,86.71
2024-01-27T01:29:04.514Z,86.71
2024-01-27T01:30:04.604Z,86.91
2024-01-27T01:31:04.791Z,86.40
2024-01-27T01:32:04.997Z,86.81
2024-01-27T01:33:05.365Z,87.02
2024-01-27T01:34:05.448Z,87.12
2024-01-27T01:35:05.501Z,87.12
2024-01-27T01:36:05.716Z,87.23
2024-01-27T01:37:05.938Z,87.02
2024-01-27T01:38:06.025Z,87.12
2024-01-27T01:39:06.138Z,87.12
2024-01-27T01:40:06.326Z,87.33
2024-01-27T01:41:06.515Z,87.12
2024-01-27T01:42:06.734Z,87.12
2024-01-27T01:43:06.872Z,87.23
2024-01-27T01:44:07.077Z,87.12
2024-01-27T01:45:07.255Z,87.02
2024-01-27T01:46:07.389Z,87.02
2024-01-27T01:47:07.565Z,86.81
2024-01-27T01:48:07.853Z,87.12
2024-01-27T01:49:08.016Z,87.23
2024-01-27T01:50:08.112Z,87.23
2024-01-27T01:51:08.330Z,87.54
2024-01-27T01:52:08.511Z,87.43
2024-01-27T01:53:08.666Z,87.33
2024-01-27T01:54:08.887Z,87.33
2024-01-27T01:55:08.995Z,87.23
2024-01-27T01:56:09.170Z,87.33
2024-01-27T01:57:09.403Z,87.47
2024-01-27T01:58:09.569Z,87.68
2024-01-27T01:59:09.698Z,87.57
2024-01-27T02:00:09.979Z,87.88
2024-01-27T02:01:10.103Z,87.78
2024-01-27T02:02:10.224Z,87.37
2024-01-27T02:03:10.415Z,87.43
2024-01-27T02:04:10.573Z,87.54
2024-01-27T02:05:10.730Z,87.43
2024-01-27T02:06:10.955Z,87.74
2024-01-27T02:07:11.034Z,87.43
2024-01-27T02:08:11.223Z,87.33
2024-01-27T02:09:11.438Z,87.12
2024-01-27T02:10:11.599Z,87.02
2024-01-27T02:11:11.781Z,86.81
2024-01-27T02:12:12.004Z,86.91
2024-01-27T02:13:12.182Z,86.91
2024-01-27T02:14:12.379Z,87.02
2024-01-27T02:15:12.568Z,86.91
2024-01-27T02:16:12.742Z,86.71
2024-01-27T02:17:12.929Z,86.40
2024-01-27T02:18:13.219Z,86.40
2024-01-27T02:19:13.457Z,86.50
2024-01-27T02:20:13.528Z,86.40
2024-01-27T02:21:16.357Z,86.60
2024-01-27T02:22:13.871Z,86.60
2024-01-27T02:23:14.070Z,86.29
2024-01-27T02:24:14.311Z,86.29
2024-01-27T02:25:14.457Z,86.50
2024-01-27T02:26:14.629Z,86.50
2024-01-27T02:27:14.795Z,86.40
2024-01-27T02:28:14.979Z,86.40
2024-01-27T02:29:15.198Z,86.60
2024-01-27T02:30:15.392Z,86.60
2024-01-27T02:31:15.559Z,86.71
2024-01-27T02:32:15.756Z,86.91
2024-01-27T02:33:16.001Z,86.91
2024-01-27T02:34:16.256Z,86.71
2024-01-27T02:35:16.173Z,86.40
2024-01-27T02:36:16.400Z,86.46
2024-01-27T02:37:16.468Z,86.57
2024-01-27T02:38:16.657Z,86.57
2024-01-27T02:39:16.925Z,86.60
2024-01-27T02:40:16.971Z,86.50
2024-01-27T02:41:17.160Z,86.77
2024-01-27T02:42:17.343Z,86.50
2024-01-27T02:43:17.526Z,86.81
2024-01-27T02:44:17.718Z,86.71
2024-01-27T02:45:17.965Z,87.02
2024-01-27T02:46:18.096Z,86.71
2024-01-27T02:47:18.289Z,86.71
2024-01-27T02:48:18.716Z,86.81
2024-01-27T02:49:18.733Z,86.81
2024-01-27T02:50:18.793Z,86.71
2024-01-27T02:51:19.005Z,87.02
2024-01-27T02:52:19.181Z,86.91
2024-01-27T02:53:19.368Z,87.12
2024-01-27T02:54:19.573Z,87.33
2024-01-27T02:55:19.717Z,87.27
2024-01-27T02:56:19.916Z,87.37
2024-01-27T02:57:20.123Z,87.47
2024-01-27T02:58:20.290Z,87.47
2024-01-27T02:59:20.466Z,87.68
2024-01-27T03:00:20.724Z,87.68
2024-01-27T03:01:20.784Z,87.78
2024-01-27T03:02:20.923Z,88.20
2024-01-27T03:03:21.246Z,88.20
2024-01-27T03:04:21.237Z,88.09
2024-01-27T03:05:21.446Z,88.20
2024-01-27T03:06:21.581Z,88.30
2024-01-27T03:07:21.647Z,88.30
2024-01-27T03:08:21.872Z,88.40
2024-01-27T03:09:22.026Z,88.09
2024-01-27T03:10:22.217Z,88.30
2024-01-27T03:11:22.385Z,88.09
2024-01-27T03:12:22.659Z,88.30
2024-01-27T03:13:22.707Z,88.34
2024-01-27T03:14:22.914Z,88.45
2024-01-27T03:15:23.141Z,88.65
2024-01-27T03:16:23.317Z,88.86
2024-01-27T03:17:23.547Z,88.96
2024-01-27T03:18:23.959Z,88.86
2024-01-27T03:19:24.064Z,88.86
2024-01-27T03:20:24.137Z,88.65
2024-01-27T03:21:24.366Z,88.76
2024-01-27T03:22:24.474Z,88.65
2024-01-27T03:23:24.672Z,88.55
2024-01-27T03:24:24.936Z,88.65
2024-01-27T03:25:24.994Z,88.55
2024-01-27T03:26:25.242Z,88.65
2024-01-27T03:27:25.430Z,88.45
2024-01-27T03:28:25.616Z,88.65
2024-01-27T03:29:25.773Z,88.65
2024-01-27T03:30:25.954Z,88.76
2024-01-27T03:31:26.106Z,88.76
2024-01-27T03:32:26.322Z,88.86
2024-01-27T03:33:26.631Z,88.96
2024-01-27T03:34:26.893Z,88.86
2024-01-27T03:35:26.808Z,88.96
2024-01-27T03:36:27.109Z,88.96
2024-01-27T03:37:27.180Z,88.96
2024-01-27T03:38:27.405Z,88.96
2024-01-27T03:39:27.635Z,88.86
2024-01-27T03:40:27.735Z,88.96
2024-01-27T03:41:27.893Z,88.86
2024-01-27T03:42:28.205Z,88.86
2024-01-27T03:43:28.204Z,89.17
2024-01-27T03:44:28.411Z,89.17
2024-01-27T03:45:28.679Z,89.42
2024-01-27T03:46:28.756Z,89.42
2024-01-27T03:47:28.971Z,89.42
2024-01-27T03:48:29.474Z,89.73
2024-01-27T03:49:29.839Z,89.62
2024-01-27T03:50:29.453Z,89.62
2024-01-27T03:51:29.695Z,89.62
2024-01-27T03:52:29.863Z,89.73
2024-01-27T03:53:30.072Z,89.83
2024-01-27T03:54:30.306Z,89.73
2024-01-27T03:55:30.370Z,89.73
2024-01-27T03:56:30.621Z,89.83
2024-01-27T03:57:30.825Z,89.83
2024-01-27T03:58:31.053Z,89.83
2024-01-27T03:59:31.198Z,89.83
2024-01-27T04:00:31.405Z,89.73
2024-01-27T04:01:31.620Z,89.62
2024-01-27T04:02:31.669Z,89.62
2024-01-27T04:03:31.954Z,89.73
2024-01-27T04:04:32.213Z,89.62
2024-01-27T04:05:32.271Z,89.73
2024-01-27T04:06:32.532Z,89.73
2024-01-27T04:07:32.582Z,89.73
2024-01-27T04:08:32.809Z,90.04
2024-01-27T04:09:33.184Z,90.25
2024-01-27T04:10:33.234Z,90.35
2024-01-27T04:11:33.308Z,90.45
2024-01-27T04:12:33.683Z,90.56
2024-01-27T04:13:33.695Z,90.66
2024-01-27T04:14:33.940Z,90.66
2024-01-27T04:15:34.236Z,90.66
2024-01-27T04:16:34.291Z,90.66
2024-01-27T04:17:34.499Z,90.45
2024-01-27T04:18:34.887Z,90.56
2024-01-27T04:19:35.061Z,90.66
2024-01-27T04:20:35.106Z,90.35
2024-01-27T04:21:35.332Z,90.35
2024-01-27T04:22:35.508Z,90.35
2024-01-27T04:23:35.703Z,90.35
2024-01-27T04:24:35.923Z,90.45
2024-01-27T04:25:36.083Z,90.45
2024-01-27T04:26:36.290Z,90.35
2024-01-27T04:27:36.541Z,90.45
2024-01-27T04:28:36.744Z,90.45
2024-01-27T04:29:36.815Z,90.56
2024-01-27T04:30:37.030Z,90.66
2024-01-27T04:31:37.248Z,90.77
2024-01-27T04:32:37.416Z,90.87
2024-01-27T04:33:37.889Z,90.97
2024-01-27T04:34:37.889Z,90.77
2024-01-27T04:35:37.982Z,90.77
2024-01-27T04:36:38.265Z,90.77
2024-01-27T04:37:38.297Z,90.87
2024-01-27T04:38:38.503Z,90.87
2024-01-27T04:39:38.771Z,90.77
2024-01-27T04:40:38.967Z,90.87
2024-01-27T04:41:39.159Z,90.87
2024-01-27T04:42:39.380Z,90.97
2024-01-27T04:43:39.560Z,91.08
2024-01-27T04:44:39.763Z,91.08
2024-01-27T04:45:40.012Z,91.08
2024-01-27T04:46:40.178Z,91.18
2024-01-27T04:47:40.369Z,91.18
2024-01-27T04:48:40.807Z,91.18
2024-01-27T04:49:40.942Z,91.28
2024-01-27T04:50:40.984Z,91.28
2024-01-27T04:51:41.237Z,91.33
2024-01-27T04:52:41.386Z,91.43
2024-01-27T04:53:41.457Z,91.43
2024-01-27T04:54:41.711Z,91.53
2024-01-27T04:55:41.791Z,91.49
2024-01-27T04:56:41.985Z,91.39
2024-01-27T04:57:42.193Z,91.39
2024-01-27T04:58:42.386Z,91.49
2024-01-27T04:59:42.565Z,91.39
2024-01-27T05:00:42.907Z,91.39
2024-01-27T05:01:42.960Z,91.18
2024-01-27T05:02:43.185Z,91.08
2024-01-27T05:03:43.438Z,91.18
2024-01-27T05:04:43.549Z,91.08
2024-01-27T05:05:43.777Z,90.93
2024-01-27T05:06:44.053Z,90.93
2024-01-27T05:07:44.114Z,90.72
2024-01-27T05:08:44.348Z,90.52
2024-01-27T05:09:44.504Z,90.52
2024-01-27T05:10:44.709Z,90.62
2024-01-27T05:11:44.895Z,90.72
2024-01-27T05:12:45.085Z,90.72
2024-01-27T05:13:52.285Z,90.62
2024-01-27T05:14:45.424Z,90.72
2024-01-27T05:15:46.307Z,90.62
2024-01-27T05:16:45.858Z,90.52
2024-01-27T05:17:46.044Z,90.52
2024-01-27T05:18:46.373Z,90.31
2024-01-27T05:19:46.541Z,90.41
2024-01-27T05:20:46.592Z,90.52
2024-01-27T05:21:46.785Z,90.52
2024-01-27T05:22:46.955Z,90.47
2024-01-27T05:23:47.147Z,90.37
2024-01-27T05:24:47.326Z,90.26
2024-01-27T05:25:47.511Z,90.26
2024-01-27T05:26:47.706Z,90.26
2024-01-27T05:27:47.925Z,90.26
2024-01-27T05:28:48.137Z,90.37
2024-01-27T05:29:48.232Z,90.58
2024-01-27T05:30:48.419Z,90.47
2024-01-27T05:31:48.588Z,90.47
2024-01-27T05:32:48.968Z,90.47
2024-01-27T05:33:49.117Z,90.47
2024-01-27T05:34:49.199Z,90.26
2024-01-27T05:35:49.331Z,90.37
2024-01-27T05:36:49.492Z,90.26
2024-01-27T05:37:49.665Z,90.26
2024-01-27T05:38:50.870Z,90.16
2024-01-27T05:39:49.999Z,90.16
2024-01-27T05:40:50.194Z,90.26
2024-01-27T05:41:50.445Z,90.26
2024-01-27T05:42:50.505Z,90.58
2024-01-27T05:43:50.695Z,90.68
2024-01-27T05:44:50.983Z,90.68
2024-01-27T05:45:51.016Z,90.78
2024-01-27T05:46:51.173Z,90.58
2024-01-27T05:47:51.498Z,90.68
2024-01-27T05:48:51.573Z,90.58
2024-01-27T05:49:51.777Z,90.68
2024-01-27T05:50:51.897Z,90.78
2024-01-27T05:51:52.057Z,90.78
2024-01-27T05:52:52.231Z,90.68
2024-01-27T05:53:52.430Z,90.68
2024-01-27T05:54:52.594Z,90.78
2024-01-27T05:55:52.761Z,90.68
2024-01-27T05:56:53.026Z,90.78
2024-01-27T05:57:53.180Z,90.68
2024-01-27T05:58:53.374Z,90.78
2024-01-27T05:59:53.610Z,90.78
2024-01-27T06:00:53.891Z,90.78
2024-01-27T06:01:53.975Z,90.68
2024-01-27T06:02:54.171Z,90.37
2024-01-27T06:03:54.444Z,90.37
2024-01-27T06:04:54.488Z,90.37
2024-01-27T06:05:54.742Z,90.58
2024-01-27T06:06:54.918Z,90.58
2024-01-27T06:07:55.110Z,90.58
2024-01-27T06:08:55.142Z,90.78
2024-01-27T06:09:55.306Z,90.89
2024-01-27T06:10:55.507Z,90.68
2024-01-27T06:11:55.725Z,90.68
2024-01-27T06:12:55.811Z,90.68
2024-01-27T06:13:56.006Z,90.68
2024-01-27T06:14:56.196Z,90.78
2024-01-27T06:15:56.370Z,90.58
2024-01-27T06:16:56.559Z,90.68
2024-01-27T06:17:56.852Z,90.68
2024-01-27T06:18:56.938Z,90.68
2024-01-27T06:19:57.149Z,90.53
2024-01-27T06:20:57.267Z,90.53
2024-01-27T06:21:57.365Z,90.64
2024-01-27T06:22:57.539Z,90.53
2024-01-27T06:23:57.753Z,90.53
2024-01-27T06:24:57.882Z,90.53
2024-01-27T06:25:58.075Z,90.53
2024-01-27T06:26:58.281Z,90.53
2024-01-27T06:27:58.430Z,90.64
2024-01-27T06:28:58.600Z,90.53
2024-01-27T06:29:58.828Z,90.64
2024-01-27T06:30:58.981Z,90.64
2024-01-27T06:31:59.171Z,90.74
2024-01-27T06:32:59.550Z,90.74
2024-01-27T06:33:59.673Z,90.74
2024-01-27T06:34:59.819Z,90.64
2024-01-27T06:36:00.083Z,90.74
2024-01-27T06:37:00.065Z,90.74
2024-01-27T06:38:00.276Z,90.84
2024-01-27T06:39:00.525Z,90.74
2024-01-27T06:40:00.566Z,90.64
2024-01-27T06:41:00.748Z,90.84
2024-01-27T06:42:01.028Z,90.74
2024-01-27T06:43:02.985Z,90.84
2024-01-27T06:44:01.258Z,90.95
2024-01-27T06:45:01.468Z,90.84
2024-01-27T06:46:01.648Z,90.95
2024-01-27T06:47:01.828Z,90.84
2024-01-27T06:48:02.240Z,90.64
2024-01-27T06:49:02.324Z,90.74
2024-01-27T06:50:02.349Z,90.74
2024-01-27T06:51:02.533Z,90.64
2024-01-27T06:52:02.743Z,90.64
2024-01-27T06:53:02.963Z,90.74
2024-01-27T06:54:03.065Z,90.84
2024-01-27T06:55:03.228Z,90.95
2024-01-27T06:56:03.437Z,91.05
2024-01-27T06:57:03.658Z,90.95
2024-01-27T06:58:03.731Z,91.05
2024-01-27T06:59:03.898Z,91.16
2024-01-27T07:00:04.140Z,91.26
2024-01-27T07:01:04.443Z,91.16
2024-01-27T07:02:04.458Z,91.16
2024-01-27T07:03:04.799Z,91.16
2024-01-27T07:04:04.950Z,91.05
2024-01-27T07:05:04.918Z,91.05
2024-01-27T07:06:05.219Z,91.16
2024-01-27T07:07:05.373Z,91.26
2024-01-27T07:08:05.384Z,91.26
2024-01-27T07:09:05.597Z,91.26
2024-01-27T07:10:05.739Z,91.26
2024-01-27T07:11:05.928Z,91.47
2024-01-27T07:12:06.146Z,91.36
2024-01-27T07:13:06.316Z,91.16
2024-01-27T07:14:06.514Z,91.16
2024-01-27T07:15:06.801Z,91.05
2024-01-27T07:16:06.912Z,91.16
2024-01-27T07:17:07.090Z,91.26
2024-01-27T07:18:07.386Z,91.36
2024-01-27T07:19:07.483Z,91.26
2024-01-27T07:20:07.590Z,91.16
2024-01-27T07:21:09.475Z,91.16
2024-01-27T07:22:07.858Z,91.26
2024-01-27T07:23:08.052Z,91.16
2024-01-27T07:24:08.256Z,90.95
2024-01-27T07:25:08.399Z,90.95
2024-01-27T07:26:08.635Z,91.05
2024-01-27T07:27:08.813Z,91.05
2024-01-27T07:28:08.894Z,91.05
2024-01-27T07:29:09.111Z,90.95
2024-01-27T07:30:09.323Z,91.16
2024-01-27T07:31:09.399Z,91.16
2024-01-27T07:32:09.572Z,91.05
2024-01-27T07:33:09.863Z,90.95
2024-01-27T07:34:10.039Z,90.74
2024-01-27T07:35:10.147Z,90.84
2024-01-27T07:36:10.311Z,90.95
2024-01-27T07:37:10.473Z,90.95
2024-01-27T07:38:10.641Z,90.91
2024-01-27T07:39:10.873Z,90.91
2024-01-27T07:40:10.910Z,90.91
2024-01-27T07:41:11.116Z,90.80
2024-01-27T07:42:11.403Z,90.70
2024-01-27T07:43:11.501Z,90.60
2024-01-27T07:44:11.802Z,90.70
2024-01-27T07:45:11.917Z,90.70
2024-01-27T07:46:12.095Z,90.70
2024-01-27T07:47:12.244Z,90.70
2024-01-27T07:48:12.563Z,90.60
2024-01-27T07:49:12.737Z,90.70
2024-01-27T07:50:12.853Z,90.70
2024-01-27T07:51:12.999Z,90.80
2024-01-27T07:52:13.187Z,90.70
2024-01-27T07:53:13.365Z,90.70
2024-01-27T07:54:13.599Z,90.70
2024-01-27T07:55:13.757Z,90.70
2024-01-27T07:56:13.979Z,90.70
2024-01-27T07:57:14.155Z,90.60
2024-01-27T07:58:14.313Z,90.60
2024-01-27T07:59:14.491Z,90.39
2024-01-27T08:00:14.684Z,90.50
2024-01-27T08:01:14.826Z,90.45
2024-01-27T08:02:14.989Z,90.56
2024-01-27T08:03:15.272Z,90.56
2024-01-27T08:04:15.455Z,90.45
2024-01-27T08:05:16.442Z,90.45
2024-01-27T08:06:15.701Z,90.35
2024-01-27T08:07:16.047Z,90.35
2024-01-27T08:08:16.059Z,90.45
2024-01-27T08:09:16.281Z,90.25
2024-01-27T08:10:16.486Z,90.04
2024-01-27T08:11:16.653Z,90.04
2024-01-27T08:12:16.849Z,90.14
2024-01-27T08:13:17.015Z,90.14
2024-01-27T08:14:17.211Z,90.14
2024-01-27T08:15:17.538Z,89.94
2024-01-27T08:16:17.626Z,89.94
2024-01-27T08:17:17.779Z,89.83
2024-01-27T08:18:18.081Z,90.04
2024-01-27T08:19:18.184Z,90.04
2024-01-27T08:20:18.344Z,90.14
2024-01-27T08:21:18.570Z,89.83
2024-01-27T08:22:18.734Z,89.73
2024-01-27T08:23:18.960Z,89.73
2024-01-27T08:24:19.145Z,89.73
2024-01-27T08:25:19.335Z,89.94
2024-01-27T08:26:19.507Z,89.73
2024-01-27T08:27:19.687Z,89.62
2024-01-27T08:28:19.865Z,89.48
2024-01-27T08:29:20.039Z,89.17
2024-01-27T08:30:20.392Z,89.28
2024-01-27T08:31:20.376Z,89.38
2024-01-27T08:32:20.656Z,89.17
2024-01-27T08:33:20.821Z,89.17
2024-01-27T08:34:21.081Z,89.28
2024-01-27T08:35:21.170Z,89.17
2024-01-27T08:36:21.330Z,89.38
2024-01-27T08:37:21.503Z,88.96
2024-01-27T08:38:21.696Z,89.07
2024-01-27T08:39:21.905Z,88.96
2024-01-27T08:40:22.042Z,89.07
2024-01-27T08:41:22.223Z,89.07
2024-01-27T08:42:22.454Z,89.23
2024-01-27T08:43:22.605Z,88.76
2024-01-27T08:44:22.783Z,88.86
2024-01-27T08:45:23.036Z,89.13
2024-01-27T08:46:23.213Z,88.92
2024-01-27T08:47:23.280Z,88.82
2024-01-27T08:48:23.645Z,88.92
2024-01-27T08:49:23.781Z,88.71
2024-01-27T08:50:23.791Z,88.61
2024-01-27T08:51:24.073Z,88.61
2024-01-27T08:52:24.139Z,88.82
2024-01-27T08:53:24.343Z,88.71
2024-01-27T08:54:24.542Z,88.61
2024-01-27T08:55:24.714Z,88.41
2024-01-27T08:56:24.891Z,87.99
2024-01-27T08:57:25.130Z,87.99
2024-01-27T08:58:25.300Z,87.99
2024-01-27T08:59:25.466Z,87.79
2024-01-27T09:00:25.809Z,87.89
2024-01-27T09:01:25.796Z,87.99
2024-01-27T09:02:25.955Z,87.58
2024-01-27T09:03:26.189Z,87.68
2024-01-27T09:04:26.306Z,87.65
2024-01-27T09:05:26.450Z,87.54
2024-01-27T09:06:30.591Z,87.13
2024-01-27T09:07:27.769Z,87.13
2024-01-27T09:08:26.980Z,87.44
2024-01-27T09:09:27.199Z,87.54
2024-01-27T09:10:27.288Z,87.23
2024-01-27T09:11:27.461Z,87.23
2024-01-27T09:12:27.683Z,87.44
2024-01-27T09:13:27.854Z,87.13
2024-01-27T09:14:28.034Z,87.34
2024-01-27T09:15:28.292Z,87.44
2024-01-27T09:16:28.333Z,87.34
2024-01-27T09:17:28.491Z,87.23
2024-01-27T09:18:28.972Z,87.13
2024-01-27T09:19:28.869Z,87.13
2024-01-27T09:20:28.906Z,87.13
2024-01-27T09:21:29.349Z,87.44
2024-01-27T09:22:29.180Z,87.65
2024-01-27T09:23:29.468Z,87.44
2024-01-27T09:24:29.520Z,87.44
2024-01-27T09:25:29.704Z,87.23
2024-01-27T09:26:29.889Z,87.23
2024-01-27T09:27:30.158Z,87.34
2024-01-27T09:28:30.216Z,87.50
2024-01-27T09:29:30.625Z,87.40
2024-01-27T09:30:32.577Z,87.13
2024-01-27T09:31:30.797Z,87.13
2024-01-27T09:32:31.094Z,87.65
2024-01-27T09:33:31.470Z,87.54
2024-01-27T09:34:31.428Z,87.85
2024-01-27T09:35:31.480Z,87.95
2024-01-27T09:36:31.718Z,87.65
2024-01-27T09:37:31.753Z,87.74
2024-01-27T09:38:31.945Z,88.26
2024-01-27T09:39:32.083Z,88.16
2024-01-27T09:40:32.246Z,88.26
2024-01-27T09:41:32.404Z,88.16
2024-01-27T09:42:32.587Z,87.95
2024-01-27T09:43:32.772Z,87.74
2024-01-27T09:44:32.900Z,88.06
2024-01-27T09:45:33.103Z,88.47
2024-01-27T09:46:33.258Z,88.47
2024-01-27T09:47:33.572Z,88.26
2024-01-27T09:48:33.798Z,88.16
2024-01-27T09:49:33.932Z,87.95
2024-01-27T09:50:33.925Z,88.37
2024-01-27T09:51:34.132Z,88.16
2024-01-27T09:52:34.278Z,88.26
2024-01-27T09:53:34.467Z,88.57
2024-01-27T09:54:34.659Z,88.26
2024-01-27T09:55:34.817Z,88.26
2024-01-27T09:56:35.019Z,88.37
2024-01-27T09:57:35.274Z,88.47
2024-01-27T09:58:35.330Z,88.37
2024-01-27T09:59:35.525Z,88.47
2024-01-27T10:00:35.762Z,88.57
2024-01-27T10:01:35.872Z,88.26
2024-01-27T10:02:36.093Z,88.06
2024-01-27T10:03:36.181Z,88.02
2024-01-27T10:04:36.282Z,88.37
2024-01-27T10:05:36.453Z,88.37
2024-01-27T10:06:36.678Z,88.47
2024-01-27T10:07:36.767Z,88.53
2024-01-27T10:08:36.865Z,88.32
2024-01-27T10:09:37.126Z,88.32
2024-01-27T10:10:37.212Z,88.53
2024-01-27T10:11:37.399Z,88.22
2024-01-27T10:12:37.591Z,88.02
2024-01-27T10:13:37.795Z,88.43
2024-01-27T10:14:37.843Z,88.95
2024-01-27T10:15:38.078Z,88.84
2024-01-27T10:16:38.098Z,88.74
2024-01-27T10:17:38.309Z,88.59
2024-01-27T10:18:38.603Z,88.39
2024-01-27T10:19:41.641Z,88.39
2024-01-27T10:20:39.665Z,88.49
2024-01-27T10:21:38.880Z,88.18
2024-01-27T10:22:39.032Z,87.98
2024-01-27T10:23:39.236Z,87.77
2024-01-27T10:24:39.584Z,88.08
2024-01-27T10:25:39.580Z,87.56
2024-01-27T10:26:39.752Z,87.66
2024-01-27T10:27:39.952Z,87.66
2024-01-27T10:28:39.980Z,87.21
2024-01-27T10:29:40.155Z,86.90
2024-01-27T10:30:40.360Z,86.90
2024-01-27T10:31:40.480Z,86.80
2024-01-27T10:32:40.670Z,86.90
2024-01-27T10:33:41.064Z,87.01
2024-01-27T10:34:41.005Z,86.29
2024-01-27T10:35:41.332Z,86.70
2024-01-27T10:36:41.292Z,87.11
2024-01-27T10:37:41.349Z,86.55
2024-01-27T10:38:41.509Z,86.15
2024-01-27T10:39:41.727Z,85.83
2024-01-27T10:40:41.848Z,86.04
2024-01-27T10:41:42.027Z,86.15
2024-01-27T10:42:42.252Z,86.08
2024-01-27T10:43:42.408Z,86.49
2024-01-27T10:44:42.608Z,86.70
2024-01-27T10:45:43.148Z,86.60
2024-01-27T10:46:42.910Z,86.60
2024-01-27T10:47:43.215Z,86.70
2024-01-27T10:48:43.433Z,86.70
2024-01-27T10:49:43.572Z,86.76
2024-01-27T10:50:45.728Z,86.76
2024-01-27T10:51:43.727Z,86.87
2024-01-27T10:52:43.880Z,86.97
2024-01-27T10:53:44.012Z,86.76
2024-01-27T10:54:44.236Z,87.01
2024-01-27T10:55:44.384Z,87.32
2024-01-27T10:56:44.558Z,87.52
2024-01-27T10:57:44.739Z,87.63
2024-01-27T10:58:44.881Z,87.46
2024-01-27T10:59:45.039Z,87.63
2024-01-27T11:00:45.292Z,87.32
2024-01-27T11:01:45.404Z,87.52
2024-01-27T11:02:45.467Z,87.63
2024-01-27T11:03:45.708Z,87.93
2024-01-27T11:04:45.802Z,87.42
2024-01-27T11:05:45.999Z,87.21
2024-01-27T11:06:46.171Z,87.38
2024-01-27T11:07:46.347Z,87.27
2024-01-27T11:08:46.495Z,86.35
2024-01-27T11:09:46.740Z,86.35
2024-01-27T11:10:46.867Z,86.80
2024-01-27T11:11:47.031Z,86.70
2024-01-27T11:12:47.184Z,87.01
2024-01-27T11:13:47.371Z,86.90
2024-01-27T11:14:54.718Z,87.01
2024-01-27T11:15:50.367Z,87.21
2024-01-27T11:16:49.494Z,86.90
2024-01-27T11:17:48.136Z,86.55
2024-01-27T11:18:48.230Z,86.55
2024-01-27T11:19:48.478Z,86.76
2024-01-27T11:20:48.505Z,86.55
2024-01-27T11:21:48.702Z,86.15
2024-01-27T11:22:48.864Z,86.45
2024-01-27T11:23:49.177Z,86.35
2024-01-27T11:24:49.216Z,86.45
2024-01-27T11:25:49.454Z,86.55
2024-01-27T11:26:49.499Z,86.35
2024-01-27T11:27:49.669Z,86.45
2024-01-27T11:28:49.856Z,86.45
2024-01-27T11:29:50.038Z,85.94
2024-01-27T11:30:50.216Z,85.87
2024-01-27T11:31:50.552Z,86.18
2024-01-27T11:32:50.571Z,86.29
2024-01-27T11:33:50.874Z,86.80
2024-01-27T11:34:50.802Z,86.08
2024-01-27T11:35:50.856Z,86.29
2024-01-27T11:36:51.043Z,86.24
2024-01-27T11:37:51.205Z,85.77
2024-01-27T11:38:51.386Z,85.97
2024-01-27T11:39:51.582Z,85.87
2024-01-27T11:40:51.717Z,85.94
2024-01-27T11:41:51.874Z,85.42
2024-01-27T11:42:52.056Z,85.67
2024-01-27T11:43:52.244Z,85.57
2024-01-27T11:44:52.463Z,85.77
2024-01-27T11:45:52.592Z,85.87
2024-01-27T11:46:52.763Z,85.87
2024-01-27T11:47:53.009Z,85.97
2024-01-27T11:48:53.238Z,85.73
2024-01-27T11:49:53.294Z,85.52
2024-01-27T11:50:53.453Z,85.57
2024-01-27T11:51:53.594Z,85.77
2024-01-27T11:52:53.773Z,85.83
2024-01-27T11:53:54.055Z,85.83
2024-01-27T11:54:54.102Z,85.94
2024-01-27T11:55:54.296Z,86.24
2024-01-27T11:56:54.530Z,85.94
2024-01-27T11:57:54.574Z,85.83
2024-01-27T11:58:54.786Z,85.79
2024-01-27T11:59:55.082Z,85.73
2024-01-27T12:00:55.081Z,85.63
2024-01-27T12:01:55.267Z,85.52
2024-01-27T12:02:55.272Z,85.52
2024-01-27T12:03:55.408Z,85.73
2024-01-27T12:04:55.485Z,86.15
2024-01-27T12:05:55.692Z,86.04
2024-01-27T12:06:56.393Z,85.73
2024-01-27T12:07:55.932Z,85.73
2024-01-27T12:08:56.150Z,85.63
2024-01-27T12:09:56.308Z,85.52
2024-01-27T12:10:56.479Z,85.63
2024-01-27T12:11:56.694Z,85.11
2024-01-27T12:12:56.863Z,85.49
2024-01-27T12:13:57.029Z,85.38
2024-01-27T12:14:57.254Z,85.17
2024-01-27T12:15:57.525Z,85.59
2024-01-27T12:16:57.598Z,85.79
2024-01-27T12:17:57.881Z,85.38
2024-01-27T12:18:58.041Z,84.70
2024-01-27T12:19:58.231Z,84.80
2024-01-27T12:20:58.224Z,85.11
2024-01-27T12:21:58.361Z,85.01
2024-01-27T12:22:58.526Z,84.39
2024-01-27T12:24:00.311Z,84.59
2024-01-27T12:24:58.870Z,84.29
2024-01-27T12:25:59.025Z,83.22
2024-01-27T12:26:59.240Z,83.42
2024-01-27T12:28:00.017Z,83.32
2024-01-27T12:28:59.770Z,83.56
2024-01-27T12:30:08.927Z,83.87
2024-01-27T12:31:09.729Z,83.98
2024-01-27T12:32:09.161Z,84.19
2024-01-27T12:33:09.743Z,83.98
2024-01-27T12:34:09.632Z,83.67
2024-01-27T12:35:09.980Z,83.28
2024-01-27T12:36:09.874Z,82.25
2024-01-27T12:37:09.789Z,81.56
2024-01-27T12:38:09.978Z,81.60
2024-01-27T12:39:10.199Z,81.81
2024-01-27T12:40:10.345Z,82.32
2024-01-27T12:41:10.488Z,82.28
2024-01-27T12:42:10.728Z,81.11
2024-01-27T12:43:10.842Z,81.32
2024-01-27T12:44:11.029Z,81.35
2024-01-27T12:45:11.226Z,82.11
2024-01-27T12:46:11.264Z,82.53
2024-01-27T12:47:11.436Z,82.73
2024-01-27T12:48:11.698Z,83.27
2024-01-27T12:49:11.889Z,80.28
2024-01-27T12:50:12.214Z,79.15
2024-01-27T12:51:11.945Z,79.29
2024-01-27T12:52:12.065Z,80.46
2024-01-27T12:53:12.232Z,80.35
2024-01-27T12:54:12.471Z,81.32
2024-01-27T12:55:12.466Z,81.52